Time;durP1;ratioP1;P1;durP2;ratioP2;P2;SDS_P1;SDS_P2;PMS_P1;PMS_P2;Temp;Humidity;BMP_temperature;BMP_pressure;BME280_temperature;BME280_humidity;BME280_pressure;Samples;Min_cycle;Max_cycle;Signal;HPM_P1;HPM_P2
2023/01/10 00:00:52;;;;;;;19.08;9.43;;;9.80;99.90;;;;;;5071966;28;20020;-77
2023/01/10 00:03:18;;;;;;;21.05;9.85;;;9.70;99.90;;;;;;5072341;28;22449;-76
2023/01/10 00:05:44;;;;;;;24.52;10.52;;;9.70;99.90;;;;;;5071401;28;20410;-78
2023/01/10 00:08:14;;;;;;;37.28;14.35;;;9.70;99.90;;;;;;5071511;28;20367;-78
2023/01/10 00:10:39;;;;;;;28.70;12.45;;;9.60;99.90;;;;;;5072855;28;20106;-77
2023/01/10 00:13:23;;;;;;;43.47;15.93;;;9.60;99.90;;;;;;5076329;28;20044;-77
2023/01/10 00:15:54;;;;;;;38.33;14.60;;;9.60;99.90;;;;;;5076544;28;20436;-77
2023/01/10 00:18:20;;;;;;;41.92;15.85;;;9.70;99.90;;;;;;5076626;28;20020;-78
2023/01/10 00:20:48;;;;;;;33.83;14.25;;;9.60;99.90;;;;;;5090632;28;20050;-78
2023/01/10 00:23:14;;;;;;;32.17;14.65;;;9.70;99.90;;;;;;5095580;28;20464;-78
2023/01/10 00:25:41;;;;;;;40.72;19.38;;;9.70;99.90;;;;;;5096753;28;20055;-78
2023/01/10 00:28:18;;;;;;;37.38;17.67;;;9.70;99.90;;;;;;5095741;28;20016;-77
2023/01/10 00:30:48;;;;;;;44.17;19.95;;;9.70;99.90;;;;;;5095945;28;20488;-77
2023/01/10 00:33:19;;;;;;;51.63;23.00;;;9.70;99.90;;;;;;5083244;28;20070;-78
2023/01/10 00:35:46;;;;;;;143.35;61.95;;;9.70;99.90;;;;;;5076470;28;20020;-78
2023/01/10 00:38:12;;;;;;;73.72;36.13;;;9.70;99.90;;;;;;5076591;28;20021;-78
2023/01/10 00:40:39;;;;;;;24.52;10.77;;;9.60;99.90;;;;;;5075151;28;20471;-77
2023/01/10 00:45:49;;;;;;;71.15;33.92;;;9.50;99.90;;;;;;5076381;28;20063;-78
2023/01/10 00:48:15;;;;;;;49.15;22.30;;;9.50;99.90;;;;;;5076504;28;20048;-77
2023/01/10 00:50:41;;;;;;;28.42;14.15;;;9.40;99.90;;;;;;5076543;28;20035;-79
2023/01/10 00:53:07;;;;;;;32.88;14.65;;;9.40;99.90;;;;;;5076058;28;20020;-77
2023/01/10 00:55:34;;;;;;;26.50;13.55;;;9.50;99.90;;;;;;5074967;28;20027;-77
2023/01/10 00:58:00;;;;;;;51.75;25.27;;;9.50;99.90;;;;;;5076019;28;20074;-78
2023/01/10 01:00:26;;;;;;;51.22;24.27;;;9.40;99.90;;;;;;5074873;28;20017;-78
2023/01/10 01:02:52;;;;;;;57.45;25.23;;;9.40;99.90;;;;;;5075194;28;20021;-78
2023/01/10 01:05:18;;;;;;;55.58;24.55;;;9.40;99.90;;;;;;5074644;28;20025;-77
2023/01/10 01:07:47;;;;;;;53.92;25.05;;;9.50;99.90;;;;;;5076311;28;20038;-79
2023/01/10 01:10:25;;;;;;;52.85;23.75;;;9.50;99.90;;;;;;5074821;28;20025;-76
2023/01/10 01:12:52;;;;;;;63.08;28.10;;;9.50;99.90;;;;;;5074401;28;20379;-77
2023/01/10 01:15:17;;;;;;;29.42;13.88;;;9.50;99.90;;;;;;5075019;28;20079;-77
2023/01/10 01:17:43;;;;;;;32.00;17.40;;;9.50;99.90;;;;;;5074974;28;20443;-78
2023/01/10 01:20:10;;;;;;;38.38;20.20;;;9.40;99.90;;;;;;5071447;28;20041;-78
2023/01/10 01:22:36;;;;;;;31.60;16.73;;;9.40;99.90;;;;;;5074202;28;20021;-76
2023/01/10 01:25:03;;;;;;;19.33;11.27;;;9.30;99.90;;;;;;5074983;28;20093;-77
2023/01/10 01:27:30;;;;;;;19.20;10.07;;;9.00;99.90;;;;;;5074109;28;20082;-78
2023/01/10 01:29:56;;;;;;;14.68;8.00;;;8.90;99.90;;;;;;5073828;28;20115;-78
2023/01/10 01:32:22;;;;;;;14.73;7.88;;;8.80;99.90;;;;;;5073777;28;20020;-77
2023/01/10 01:34:47;;;;;;;13.38;7.60;;;8.70;99.90;;;;;;5074112;28;20028;-79
2023/01/10 01:37:13;;;;;;;9.15;5.35;;;8.60;99.90;;;;;;5073654;28;20046;-78
2023/01/10 01:39:39;;;;;;;9.85;5.13;;;8.50;99.90;;;;;;5074272;28;20118;-78
2023/01/10 01:42:05;;;;;;;9.30;4.57;;;8.40;99.90;;;;;;5073611;28;20028;-77
2023/01/10 01:44:34;;;;;;;7.82;4.45;;;8.30;99.90;;;;;;5074680;28;20041;-77
2023/01/10 01:47:05;;;;;;;7.07;3.97;;;8.30;99.90;;;;;;5075168;28;20025;-78
2023/01/10 01:49:33;;;;;;;6.20;3.30;;;8.20;99.90;;;;;;5075309;28;20012;-78
2023/01/10 01:52:05;;;;;;;6.50;2.95;;;8.10;99.90;;;;;;5074081;28;20450;-78
2023/01/10 01:54:33;;;;;;;7.97;3.95;;;8.10;99.90;;;;;;5073711;28;20037;-78
2023/01/10 01:57:08;;;;;;;7.68;3.55;;;8.00;99.90;;;;;;5075239;28;20025;-77
2023/01/10 01:59:43;;;;;;;6.20;3.15;;;7.90;99.90;;;;;;5074925;28;20059;-79
2023/01/10 02:02:19;;;;;;;6.82;3.22;;;7.80;99.90;;;;;;5074486;28;20095;-79
2023/01/10 02:04:52;;;;;;;7.43;3.65;;;7.70;99.90;;;;;;5073549;28;20020;-79
2023/01/10 02:07:19;;;;;;;13.60;4.70;;;7.70;99.90;;;;;;5074246;28;20024;-77
2023/01/10 02:09:53;;;;;;;5.43;3.60;;;7.60;99.90;;;;;;5074019;28;20021;-78
2023/01/10 02:12:19;;;;;;;12.30;4.95;;;7.50;99.90;;;;;;5074460;28;20016;-76
2023/01/10 02:14:48;;;;;;;15.52;6.20;;;7.50;99.90;;;;;;5072588;28;20020;-79
2023/01/10 02:17:15;;;;;;;7.50;3.80;;;7.50;99.90;;;;;;5074135;28;20516;-79
2023/01/10 02:20:09;;;;;;;6.32;3.28;;;7.50;99.90;;;;;;5072245;28;20048;-78
2023/01/10 02:23:07;;;;;;;9.50;3.30;;;7.40;99.90;;;;;;5070578;28;20033;-79
2023/01/10 02:25:42;;;;;;;6.70;3.50;;;7.40;99.90;;;;;;5047577;28;20035;-78
2023/01/10 02:28:17;;;;;;;9.95;3.10;;;7.40;99.90;;;;;;5073393;28;20021;-77
2023/01/10 02:31:19;;;;;;;12.20;4.35;;;7.40;99.90;;;;;;5073707;28;20633;-78
2023/01/10 02:33:48;;;;;;;9.00;4.13;;;7.40;99.90;;;;;;5067750;28;20056;-78
2023/01/10 02:36:28;;;;;;;5.15;2.13;;;7.40;99.90;;;;;;5073844;28;20059;-78
2023/01/10 02:38:57;;;;;;;7.40;3.78;;;7.40;99.90;;;;;;5073145;28;20104;-79
2023/01/10 02:41:45;;;;;;;5.57;2.58;;;7.40;99.90;;;;;;5072391;28;20024;-78
2023/01/10 02:44:19;;;;;;;6.80;3.17;;;7.30;99.90;;;;;;5057535;28;20044;-78
2023/01/10 02:46:47;;;;;;;5.50;2.60;;;7.20;99.90;;;;;;5074050;28;20059;-79
2023/01/10 02:49:13;;;;;;;4.45;2.45;;;7.10;99.90;;;;;;5074021;28;20024;-79
2023/01/10 02:51:38;;;;;;;4.10;1.80;;;7.10;99.90;;;;;;5074128;28;20440;-77
2023/01/10 02:54:22;;;;;;;11.68;4.90;;;7.10;99.90;;;;;;5074325;28;20024;-78
2023/01/10 02:56:53;;;;;;;14.25;5.95;;;7.00;99.90;;;;;;5072892;28;20078;-79
2023/01/10 02:59:44;;;;;;;19.98;7.88;;;7.00;99.90;;;;;;5073842;28;20052;-78
2023/01/10 03:02:20;;;;;;;10.93;5.03;;;6.90;99.90;;;;;;5072697;28;20398;-78
2023/01/10 03:04:55;;;;;;;9.65;4.75;;;6.90;99.90;;;;;;5073191;28;20040;-77
2023/01/10 03:07:59;;;;;;;7.15;3.42;;;6.90;99.90;;;;;;5072523;28;20411;-77
2023/01/10 03:10:40;;;;;;;8.27;2.72;;;6.80;99.90;;;;;;5073004;28;20344;-77
2023/01/10 03:13:09;;;;;;;9.50;4.78;;;6.80;99.90;;;;;;5072354;28;20016;-78
2023/01/10 03:15:38;;;;;;;6.43;3.05;;;6.80;99.90;;;;;;5072016;28;20016;-77
2023/01/10 03:18:12;;;;;;;6.38;3.10;;;6.70;99.90;;;;;;5071943;28;20052;-78
2023/01/10 03:20:43;;;;;;;4.13;2.10;;;6.80;99.90;;;;;;5071854;28;20467;-79
2023/01/10 03:23:11;;;;;;;5.20;2.40;;;6.70;99.90;;;;;;5072160;28;20048;-78
2023/01/10 03:25:39;;;;;;;3.92;1.80;;;6.70;99.90;;;;;;5073357;28;20055;-78
2023/01/10 03:28:10;;;;;;;5.40;2.28;;;6.70;99.90;;;;;;5071807;28;20024;-77
2023/01/10 03:30:51;;;;;;;5.50;2.33;;;6.70;99.90;;;;;;5068662;28;20042;-78
2023/01/10 03:33:25;;;;;;;8.85;4.05;;;6.70;99.90;;;;;;5073324;28;20265;-79
2023/01/10 03:36:00;;;;;;;6.13;2.65;;;6.70;99.90;;;;;;5072900;28;20074;-78
2023/01/10 03:38:55;;;;;;;4.65;2.42;;;6.60;99.90;;;;;;5072131;28;20032;-79
2023/01/10 03:41:46;;;;;;;6.75;2.53;;;6.60;99.90;;;;;;5072899;28;20051;-78
2023/01/10 03:47:07;;;;;;;3.33;1.27;;;6.50;99.90;;;;;;5076778;28;20109;-79
2023/01/10 03:49:36;;;;;;;3.58;2.65;;;6.40;99.90;;;;;;5076880;28;20059;-78
2023/01/10 03:52:04;;;;;;;2.55;1.15;;;6.40;99.90;;;;;;5075346;28;20051;-77
2023/01/10 03:54:30;;;;;;;2.13;1.20;;;6.30;99.90;;;;;;5075526;28;20031;-79
2023/01/10 03:56:56;;;;;;;5.55;1.80;;;6.30;99.90;;;;;;5076656;28;20016;-80
2023/01/10 03:59:26;;;;;;;4.10;2.03;;;6.20;99.90;;;;;;5075881;28;20021;-78
2023/01/10 04:01:53;;;;;;;5.60;2.38;;;6.20;99.90;;;;;;5076558;28;20032;-79
2023/01/10 04:04:19;;;;;;;4.15;2.15;;;6.20;99.90;;;;;;5075331;28;20035;-78
2023/01/10 04:06:45;;;;;;;5.03;2.05;;;6.20;99.90;;;;;;5076744;28;20456;-77
2023/01/10 04:09:11;;;;;;;3.00;1.35;;;6.10;99.90;;;;;;5075474;28;20035;-78
2023/01/10 04:11:37;;;;;;;3.58;1.73;;;6.10;99.90;;;;;;5075877;28;20016;-77
2023/01/10 04:14:03;;;;;;;4.60;1.33;;;6.10;99.90;;;;;;5076623;28;20448;-79
2023/01/10 04:16:28;;;;;;;3.08;1.30;;;6.00;99.90;;;;;;5077089;28;20048;-78
2023/01/10 04:18:54;;;;;;;5.40;1.70;;;6.00;99.90;;;;;;5075696;28;20017;-78
2023/01/10 04:21:20;;;;;;;5.60;2.03;;;6.00;99.90;;;;;;5076922;28;20391;-78
2023/01/10 04:23:45;;;;;;;5.00;1.70;;;6.00;99.90;;;;;;5076391;28;20028;-78
2023/01/10 04:26:11;;;;;;;5.93;2.30;;;5.90;99.90;;;;;;5076797;28;20032;-78
2023/01/10 04:28:37;;;;;;;2.38;1.33;;;5.90;99.90;;;;;;5076536;28;20016;-79
2023/01/10 04:31:03;;;;;;;4.63;1.67;;;5.90;99.90;;;;;;5075252;28;20074;-78
2023/01/10 04:33:29;;;;;;;5.90;1.83;;;5.90;99.90;;;;;;5076732;28;20024;-78
2023/01/10 04:35:55;;;;;;;5.22;1.63;;;5.90;99.90;;;;;;5076620;28;20023;-77
2023/01/10 04:38:20;;;;;;;4.07;1.77;;;5.80;99.90;;;;;;5074581;28;20016;-79
2023/01/10 04:40:53;;;;;;;4.80;1.88;;;5.80;99.90;;;;;;5075722;28;20027;-81
2023/01/10 04:43:19;;;;;;;3.58;1.65;;;5.80;99.90;;;;;;5075508;28;20028;-78
2023/01/10 04:45:45;;;;;;;3.42;1.73;;;5.80;99.90;;;;;;5075968;28;20033;-80
2023/01/10 04:48:10;;;;;;;2.45;1.58;;;5.80;99.90;;;;;;5075597;28;20025;-77
2023/01/10 04:50:36;;;;;;;3.03;1.75;;;5.70;99.90;;;;;;5075756;28;20341;-78
2023/01/10 04:53:02;;;;;;;3.58;2.00;;;5.70;99.90;;;;;;5074604;28;20398;-78
2023/01/10 04:55:27;;;;;;;5.78;2.00;;;5.70;99.90;;;;;;5074087;28;20033;-77
2023/01/10 04:57:53;;;;;;;2.67;1.55;;;5.60;99.90;;;;;;5074479;28;20032;-78
2023/01/10 05:00:19;;;;;;;3.88;2.22;;;5.60;99.90;;;;;;5075498;28;20073;-78
2023/01/10 05:02:45;;;;;;;6.82;2.70;;;5.60;99.90;;;;;;5075172;28;20032;-80
2023/01/10 05:05:14;;;;;;;5.57;2.22;;;5.70;99.90;;;;;;5075234;28;20028;-78
2023/01/10 05:07:40;;;;;;;3.13;1.38;;;5.70;99.90;;;;;;5075809;28;20029;-78
2023/01/10 05:10:07;;;;;;;5.72;1.70;;;5.70;99.90;;;;;;5075714;28;20029;-80
2023/01/10 05:12:33;;;;;;;8.60;3.22;;;5.70;99.90;;;;;;5074349;28;20036;-80
2023/01/10 05:14:58;;;;;;;5.70;2.45;;;5.70;99.90;;;;;;5075805;28;20024;-78
2023/01/10 05:17:24;;;;;;;6.00;2.13;;;5.70;99.90;;;;;;5075672;28;20021;-78
2023/01/10 05:19:50;;;;;;;8.23;3.00;;;5.70;99.90;;;;;;5075518;28;20052;-78
2023/01/10 05:22:16;;;;;;;4.97;2.50;;;5.70;99.90;;;;;;5075791;28;20020;-78
2023/01/10 05:24:41;;;;;;;6.50;2.63;;;5.70;99.90;;;;;;5075075;28;20107;-80
2023/01/10 05:27:07;;;;;;;5.78;2.15;;;5.70;99.90;;;;;;5074302;28;20028;-80
2023/01/10 05:29:33;;;;;;;37.15;12.40;;;5.60;99.90;;;;;;5075751;28;20100;-78
2023/01/10 05:32:00;;;;;;;16.40;6.22;;;5.70;99.90;;;;;;5074275;28;20020;-78
2023/01/10 05:34:26;;;;;;;20.00;7.57;;;5.60;99.90;;;;;;5074474;28;20467;-80
2023/01/10 05:36:52;;;;;;;21.80;7.50;;;5.70;99.90;;;;;;5074484;28;20063;-80
2023/01/10 05:39:17;;;;;;;20.45;8.73;;;5.60;99.90;;;;;;5074833;28;20020;-78
2023/01/10 05:41:43;;;;;;;11.95;5.63;;;5.60;99.90;;;;;;5073401;28;20025;-79
2023/01/10 05:44:09;;;;;;;11.88;5.03;;;5.60;99.90;;;;;;5072868;28;20020;-78
2023/01/10 05:46:35;;;;;;;7.45;3.40;;;5.60;99.90;;;;;;5073387;28;20070;-78
2023/01/10 05:49:00;;;;;;;9.75;4.03;;;5.60;99.90;;;;;;5074734;28;20020;-78
2023/01/10 05:51:26;;;;;;;12.95;5.30;;;5.60;99.90;;;;;;5073012;28;20344;-77
2023/01/10 05:53:52;;;;;;;10.75;4.32;;;5.60;99.90;;;;;;5073520;28;20033;-80
2023/01/10 05:56:17;;;;;;;7.15;3.13;;;5.60;99.90;;;;;;5074295;28;20448;-79
2023/01/10 05:58:44;;;;;;;6.22;3.30;;;5.60;99.90;;;;;;5072949;28;20024;-80
2023/01/10 06:01:09;;;;;;;4.63;2.20;;;5.60;99.90;;;;;;5074542;28;20032;-78
2023/01/10 06:03:35;;;;;;;;;;;5.50;99.90;;;;;;5073213;28;20367;-79
2023/01/10 06:06:04;;;;;;;10.25;5.20;;;5.50;99.90;;;;;;5074192;28;20410;-78
2023/01/10 06:08:29;;;;;;;9.40;4.72;;;5.50;99.90;;;;;;5072266;28;20017;-79
2023/01/10 06:10:55;;;;;;;17.85;6.80;;;5.50;99.90;;;;;;5073640;28;20104;-78
2023/01/10 06:13:21;;;;;;;16.42;5.18;;;5.50;99.90;;;;;;5073791;28;20021;-78
2023/01/10 06:15:48;;;;;;;22.77;9.10;;;5.40;99.90;;;;;;5075046;28;20016;-79
2023/01/10 06:18:14;;;;;;;23.27;9.25;;;5.50;99.90;;;;;;5087111;28;20375;-79
2023/01/10 06:20:40;;;;;;;27.02;12.48;;;5.50;99.90;;;;;;5072338;28;20364;-79
2023/01/10 06:23:06;;;;;;;27.23;11.15;;;5.50;99.90;;;;;;5073484;28;20016;-77
2023/01/10 06:25:35;;;;;;;27.42;10.45;;;5.50;99.90;;;;;;5073754;28;20370;-79
2023/01/10 06:28:02;;;;;;;12.52;6.20;;;5.50;99.90;;;;;;5073999;28;20517;-78
2023/01/10 06:30:28;;;;;;;29.08;12.82;;;5.50;99.90;;;;;;5074001;28;20027;-79
2023/01/10 06:32:58;;;;;;;21.80;8.68;;;5.50;99.90;;;;;;5073089;28;20032;-79
2023/01/10 06:35:24;;;;;;;33.70;10.50;;;5.50;99.90;;;;;;5073875;28;20017;-79
2023/01/10 06:37:50;;;;;;;17.08;7.13;;;5.50;99.90;;;;;;5073710;28;20023;-79
2023/01/10 06:40:16;;;;;;;27.73;9.13;;;5.50;99.90;;;;;;5073558;28;20056;-79
2023/01/10 06:42:41;;;;;;;48.85;17.23;;;5.50;99.90;;;;;;5072284;28;20074;-79
2023/01/10 06:45:09;;;;;;;38.47;13.85;;;5.50;99.90;;;;;;5072269;28;20024;-79
2023/01/10 06:47:34;;;;;;;42.85;13.88;;;5.50;99.90;;;;;;5053935;28;20025;-78
2023/01/10 06:50:00;;;;;;;26.88;11.13;;;5.50;99.90;;;;;;5062378;28;20359;-79
2023/01/10 06:52:26;;;;;;;28.08;9.82;;;5.50;99.90;;;;;;5073425;28;20447;-78
2023/01/10 06:54:52;;;;;;;33.33;11.90;;;5.50;99.90;;;;;;5073546;28;20108;-79
2023/01/10 06:57:18;;;;;;;15.88;6.70;;;5.50;99.90;;;;;;5073837;28;20466;-77
2023/01/10 06:59:44;;;;;;;15.02;5.45;;;5.50;99.90;;;;;;5073541;28;20455;-80
2023/01/10 07:02:11;;;;;;;24.70;9.93;;;5.50;99.90;;;;;;5073098;28;20051;-77
2023/01/10 07:04:37;;;;;;;27.73;10.27;;;5.60;99.90;;;;;;5071911;28;20036;-78
2023/01/10 07:07:02;;;;;;;11.02;5.57;;;5.50;99.90;;;;;;5073533;28;20344;-79
2023/01/10 07:09:28;;;;;;;17.75;7.07;;;5.60;99.90;;;;;;5073348;28;20025;-79
2023/01/10 07:11:54;;;;;;;21.83;9.57;;;5.60;99.90;;;;;;5073092;28;20035;-79
2023/01/10 07:14:20;;;;;;;28.73;10.65;;;5.60;99.90;;;;;;5073746;28;20020;-80
2023/01/10 07:16:45;;;;;;;49.08;16.45;;;5.60;99.90;;;;;;5073322;28;20017;-79
2023/01/10 07:19:16;;;;;;;33.97;11.27;;;5.70;99.90;;;;;;5072933;28;20104;-80
2023/01/10 07:21:42;;;;;;;28.33;8.90;;;5.70;99.90;;;;;;5077396;28;20052;-78
2023/01/10 07:24:09;;;;;;;33.25;13.05;;;5.70;99.90;;;;;;5076071;28;20026;-79
2023/01/10 07:26:35;;;;;;;23.70;10.70;;;5.80;99.90;;;;;;5077063;28;20047;-77
2023/01/10 07:29:00;;;;;;;24.58;9.82;;;5.80;99.90;;;;;;5075711;28;20029;-80
2023/01/10 07:31:26;;;;;;;14.27;6.43;;;5.80;99.90;;;;;;5077086;28;20478;-79
2023/01/10 07:33:52;;;;;;;12.77;6.20;;;5.80;99.90;;;;;;5076933;28;20024;-77
2023/01/10 07:36:19;;;;;;;11.73;4.35;;;5.80;99.90;;;;;;5075681;28;20024;-78
2023/01/10 07:38:45;;;;;;;7.10;4.63;;;5.90;99.90;;;;;;5076713;28;20036;-80
2023/01/10 07:41:10;;;;;;;11.10;5.10;;;5.90;99.90;;;;;;5077028;28;20021;-80
2023/01/10 07:43:36;;;;;;;12.32;6.28;;;5.90;99.90;;;;;;5075583;28;20449;-78
2023/01/10 07:46:07;;;;;;;11.50;4.88;;;5.90;99.90;;;;;;5077418;28;20037;-78
2023/01/10 07:48:32;;;;;;;25.00;7.85;;;5.90;99.90;;;;;;5076756;28;20150;-78
2023/01/10 07:51:00;;;;;;;17.10;6.63;;;5.90;99.90;;;;;;5075022;28;20115;-78
2023/01/10 07:53:27;;;;;;;19.02;7.88;;;5.90;99.90;;;;;;5076811;28;20020;-79
2023/01/10 07:55:53;;;;;;;15.52;6.30;;;6.00;99.90;;;;;;5076314;28;20031;-78
2023/01/10 07:58:19;;;;;;;18.48;8.13;;;5.90;99.90;;;;;;5074521;28;20017;-78
2023/01/10 08:00:45;;;;;;;14.70;5.93;;;6.00;99.90;;;;;;5076620;28;20021;-78
2023/01/10 08:03:12;;;;;;;8.02;3.50;;;5.90;99.90;;;;;;5076578;28;20028;-77
2023/01/10 08:05:38;;;;;;;10.60;5.75;;;5.90;99.90;;;;;;5075897;28;20107;-77
2023/01/10 08:08:05;;;;;;;8.52;3.92;;;5.90;99.90;;;;;;5074997;28;20029;-79
2023/01/10 08:10:33;;;;;;;10.00;4.95;;;5.90;99.90;;;;;;5075232;28;20063;-79
2023/01/10 08:12:58;;;;;;;8.93;4.28;;;6.00;99.90;;;;;;5076134;28;20021;-80
2023/01/10 08:15:24;;;;;;;15.18;7.25;;;5.90;99.90;;;;;;5076254;28;20024;-78
2023/01/10 08:17:50;;;;;;;16.23;7.13;;;6.00;99.90;;;;;;5075791;28;20025;-80
2023/01/10 08:20:16;;;;;;;50.42;14.30;;;5.90;99.90;;;;;;5074762;28;20071;-79
2023/01/10 08:22:41;;;;;;;28.08;12.23;;;5.90;99.90;;;;;;5075159;28;20025;-79
2023/01/10 08:25:08;;;;;;;18.90;8.25;;;5.90;99.90;;;;;;5075592;28;20067;-79
2023/01/10 08:27:33;;;;;;;14.63;6.80;;;5.90;99.90;;;;;;5074518;28;20028;-78
2023/01/10 08:29:59;;;;;;;11.70;5.22;;;5.90;99.90;;;;;;5076407;28;20024;-78
2023/01/10 08:32:25;;;;;;;11.90;6.20;;;5.90;99.90;;;;;;5073283;28;20481;-78
2023/01/10 08:34:51;;;;;;;13.63;6.47;;;5.90;99.90;;;;;;5074660;28;20032;-79
2023/01/10 08:37:17;;;;;;;9.20;5.03;;;6.00;99.90;;;;;;5076199;28;20017;-79
2023/01/10 08:39:42;;;;;;;16.13;7.25;;;5.90;99.90;;;;;;5075679;28;20031;-80
2023/01/10 08:42:08;;;;;;;12.30;6.18;;;6.00;99.90;;;;;;5074905;28;20023;-77
2023/01/10 08:44:34;;;;;;;12.68;5.93;;;6.00;99.90;;;;;;5074030;28;20467;-79
2023/01/10 08:47:03;;;;;;;29.80;11.68;;;6.10;99.90;;;;;;5073297;28;20035;-77
2023/01/10 08:49:29;;;;;;;39.45;14.48;;;6.10;99.90;;;;;;5074867;28;20024;-78
2023/01/10 08:51:54;;;;;;;17.95;8.82;;;6.10;99.90;;;;;;5075137;28;20032;-79
2023/01/10 08:54:20;;;;;;;14.18;6.68;;;6.10;99.90;;;;;;5074446;28;20367;-80
2023/01/10 08:56:46;;;;;;;22.63;10.88;;;6.10;99.90;;;;;;5075248;28;20028;-78
2023/01/10 08:59:11;;;;;;;21.45;9.82;;;6.10;99.90;;;;;;5075980;28;20082;-80
2023/01/10 09:01:37;;;;;;;30.90;13.70;;;6.10;99.90;;;;;;5072834;28;20329;-79
2023/01/10 09:04:04;;;;;;;18.33;9.93;;;6.20;99.90;;;;;;5073759;28;20024;-79
2023/01/10 09:06:30;;;;;;;27.58;12.18;;;6.20;99.90;;;;;;5074965;28;20112;-81
2023/01/10 09:08:56;;;;;;;23.00;9.95;;;6.10;99.90;;;;;;5077897;28;20020;-78
2023/01/10 09:11:21;;;;;;;17.02;8.20;;;6.20;99.90;;;;;;5072276;28;20073;-80
2023/01/10 09:13:50;;;;;;;41.95;16.98;;;6.20;99.90;;;;;;5073028;28;20028;-78
2023/01/10 09:16:16;;;;;;;27.02;12.35;;;6.20;99.90;;;;;;5074182;28;20023;-80
2023/01/10 09:18:42;;;;;;;24.60;12.10;;;6.20;99.90;;;;;;5073053;28;20028;-79
2023/01/10 09:21:08;;;;;;;14.75;7.53;;;6.20;99.90;;;;;;5075235;28;20055;-79
2023/01/10 09:23:34;;;;;;;12.00;6.22;;;6.20;99.90;;;;;;5075454;28;20103;-79
2023/01/10 09:26:00;;;;;;;14.77;7.68;;;6.10;99.90;;;;;;5075373;28;20031;-80
2023/01/10 09:28:26;;;;;;;14.57;6.72;;;6.20;99.90;;;;;;5075266;28;20024;-80
2023/01/10 09:30:52;;;;;;;20.13;9.25;;;6.20;99.90;;;;;;5075708;28;20107;-80
2023/01/10 09:33:17;;;;;;;172.23;58.80;;;6.20;99.90;;;;;;5073876;28;20024;-80
2023/01/10 09:35:43;;;;;;;39.88;21.33;;;6.30;99.90;;;;;;5074810;28;20016;-79
2023/01/10 09:38:13;;;;;;;25.55;14.73;;;6.30;99.90;;;;;;5075257;28;20021;-78
2023/01/10 09:40:39;;;;;;;28.45;13.48;;;6.20;99.90;;;;;;5074919;28;20017;-81
2023/01/10 09:43:14;;;;;;;14.52;7.80;;;6.20;99.90;;;;;;5074011;28;20100;-79
2023/01/10 09:45:55;;;;;;;19.77;9.60;;;6.20;99.90;;;;;;5074864;28;20031;-78
2023/01/10 09:48:48;;;;;;;31.90;13.53;;;6.20;99.90;;;;;;5075436;28;20047;-79
2023/01/10 09:51:40;;;;;;;23.40;11.25;;;6.20;99.90;;;;;;5073748;28;20269;-78
2023/01/10 09:54:17;;;;;;;24.90;11.55;;;6.20;99.90;;;;;;5073690;28;20036;-80
2023/01/10 09:56:44;;;;;;;24.85;10.75;;;6.30;99.90;;;;;;5074892;28;20039;-81
2023/01/10 09:59:17;;;;;;;29.13;12.93;;;6.20;99.90;;;;;;5074602;28;20013;-79
2023/01/10 10:01:45;;;;;;;34.40;13.77;;;6.20;99.90;;;;;;5074807;28;20032;-79
2023/01/10 10:04:11;;;;;;;25.40;9.52;;;6.30;99.90;;;;;;5074505;28;20051;-79
2023/01/10 10:06:36;;;;;;;26.92;11.60;;;6.30;99.90;;;;;;5074357;28;20468;-79
2023/01/10 10:09:02;;;;;;;23.80;10.60;;;6.30;99.90;;;;;;5074371;28;20025;-80
2023/01/10 10:12:16;;;;;;;28.10;11.40;;;6.30;99.90;;;;;;5073192;28;20059;-81
2023/01/10 10:15:19;;;;;;;19.98;7.85;;;6.20;99.90;;;;;;5068677;28;20115;-79
2023/01/10 10:17:54;;;;;;;40.95;16.52;;;6.20;99.90;;;;;;5054066;28;20060;-79
2023/01/10 10:20:29;;;;;;;27.27;10.43;;;6.20;99.90;;;;;;5054328;28;20051;-78
2023/01/10 10:23:22;;;;;;;30.13;12.07;;;6.20;99.90;;;;;;5054492;28;20017;-78
2023/01/10 10:26:09;;;;;;;27.95;11.07;;;6.20;99.90;;;;;;5054176;28;20025;-79
2023/01/10 10:29:05;;;;;;;34.13;12.35;;;6.20;99.90;;;;;;5058380;28;20020;-78
2023/01/10 10:31:49;;;;;;;32.67;14.52;;;6.20;99.90;;;;;;5071898;28;20057;-77
2023/01/10 10:34:37;;;;;;;62.00;21.30;;;6.20;99.90;;;;;;5072827;28;20101;-79
2023/01/10 10:37:16;;;;;;;49.35;19.25;;;6.20;99.90;;;;;;5068804;28;20025;-78
2023/01/10 10:39:49;;;;;;;38.00;16.02;;;6.20;99.90;;;;;;5073863;28;20020;-79
2023/01/10 10:42:17;;;;;;;31.27;12.82;;;6.20;99.90;;;;;;5073384;28;20070;-79
2023/01/10 10:44:54;;;;;;;32.05;15.52;;;6.20;99.90;;;;;;5072151;28;20032;-79
2023/01/10 10:47:22;;;;;;;38.97;15.88;;;6.20;99.90;;;;;;5073450;28;20040;-80
2023/01/10 10:49:50;;;;;;;25.25;11.63;;;6.20;99.90;;;;;;5072925;28;20028;-82
2023/01/10 10:52:22;;;;;;;50.67;22.52;;;6.20;99.90;;;;;;5073420;28;20091;-78
2023/01/10 10:54:48;;;;;;;50.83;27.85;;;6.20;99.90;;;;;;5073598;28;20024;-79
2023/01/10 10:57:14;;;;;;;36.28;19.33;;;6.20;99.90;;;;;;5073824;28;20073;-80
2023/01/10 10:59:43;;;;;;;50.60;23.80;;;6.20;99.90;;;;;;5072597;28;20364;-78
2023/01/10 11:02:27;;;;;;;54.17;23.45;;;6.20;99.90;;;;;;5073835;28;20021;-79
2023/01/10 11:05:06;;;;;;;42.53;18.52;;;6.20;99.90;;;;;;5073475;28;20032;-80
2023/01/10 11:07:34;;;;;;;28.23;12.38;;;6.20;99.90;;;;;;5072433;28;20161;-78
2023/01/10 11:12:50;;;;;;;71.93;32.10;;;6.10;99.90;;;;;;5073478;28;20032;-79
2023/01/10 11:15:42;;;;;;;42.35;21.42;;;6.10;99.90;;;;;;5073773;28;20085;-80
2023/01/10 11:18:16;;;;;;;46.55;22.73;;;6.10;99.90;;;;;;5073641;28;20049;-79
2023/01/10 11:20:57;;;;;;;46.65;21.88;;;6.10;99.90;;;;;;5072961;28;20559;-80
2023/01/10 11:23:49;;;;;;;56.65;26.38;;;6.00;99.90;;;;;;5073300;28;20379;-79
2023/01/10 11:26:33;;;;;;;62.58;29.27;;;6.10;99.90;;;;;;5073862;28;20033;-79
2023/01/10 11:29:24;;;;;;;43.13;21.80;;;6.10;99.90;;;;;;5072554;28;20020;-78
2023/01/10 11:31:53;;;;;;;42.78;19.60;;;6.10;99.90;;;;;;5073581;28;20024;-80
2023/01/10 11:34:32;;;;;;;47.65;21.33;;;6.10;99.90;;;;;;5073487;28;20436;-79
2023/01/10 11:37:03;;;;;;;56.85;27.23;;;6.10;99.90;;;;;;5072510;28;20021;-79
2023/01/10 11:39:31;;;;;;;30.33;15.15;;;6.10;99.90;;;;;;5073227;28;20410;-78
2023/01/10 11:42:10;;;;;;;25.27;11.18;;;6.10;99.90;;;;;;5073279;28;20082;-78
2023/01/10 11:44:36;;;;;;;24.58;11.23;;;6.10;99.90;;;;;;5072112;28;20060;-80
2023/01/10 11:47:04;;;;;;;26.05;12.25;;;6.10;99.90;;;;;;5073259;28;20052;-79
2023/01/10 11:49:38;;;;;;;28.83;13.48;;;6.10;99.90;;;;;;5072146;28;20081;-80
2023/01/10 11:52:26;;;;;;;37.70;16.02;;;6.10;99.90;;;;;;5072124;28;20020;-80
2023/01/10 11:54:55;;;;;;;52.17;20.80;;;6.00;99.90;;;;;;5071701;28;20028;-79
2023/01/10 11:57:25;;;;;;;47.63;18.40;;;6.00;99.90;;;;;;5072197;28;20470;-79
2023/01/10 12:00:04;;;;;;;45.55;18.45;;;6.00;99.90;;;;;;5073432;28;20013;-80
2023/01/10 12:02:42;;;;;;;31.20;12.15;;;6.10;99.90;;;;;;5073564;28;20016;-80
2023/01/10 12:05:20;;;;;;;50.63;18.05;;;6.10;99.90;;;;;;5073500;28;20017;-80
2023/01/10 12:07:58;;;;;;;42.85;17.35;;;6.10;99.90;;;;;;5077202;28;20086;-79
2023/01/10 12:10:26;;;;;;;38.45;16.60;;;6.10;99.90;;;;;;5075675;28;20020;-77
2023/01/10 12:12:56;;;;;;;24.52;13.00;;;6.10;99.90;;;;;;5075559;28;20028;-76
2023/01/10 12:15:27;;;;;;;34.78;14.50;;;6.20;99.90;;;;;;5075833;28;20024;-77
2023/01/10 12:17:55;;;;;;;82.32;32.90;;;6.20;99.90;;;;;;5076630;28;20501;-78
2023/01/10 12:20:22;;;;;;;64.85;26.33;;;6.20;99.90;;;;;;5075080;28;20044;-78
2023/01/10 12:22:54;;;;;;;75.32;29.23;;;6.30;99.90;;;;;;5075202;28;20115;-78
2023/01/10 12:25:26;;;;;;;43.38;17.63;;;6.20;99.90;;;;;;5076789;28;20023;-80
2023/01/10 12:27:52;;;;;;;;;;;6.20;99.90;;;;;;5076759;28;20028;-78
2023/01/10 12:30:48;;;;;;;111.00;57.20;;;6.20;99.90;;;;;;5076034;28;20339;-78
2023/01/10 12:33:34;;;;;;;23.35;12.90;;;6.20;99.90;;;;;;5075545;28;20032;-79
2023/01/10 12:36:27;;;;;;;27.02;13.32;;;6.10;99.90;;;;;;5076587;28;20059;-79
2023/01/10 12:39:02;;;;;;;29.15;16.25;;;6.10;99.90;;;;;;5075309;28;20032;-80
2023/01/10 12:44:43;;;;;;;20.45;9.65;;;6.00;99.90;;;;;;5075971;28;20039;-80
2023/01/10 12:47:15;;;;;;;19.25;8.13;;;6.00;99.90;;;;;;5075991;28;20036;-78
2023/01/10 12:49:55;;;;;;;19.50;9.43;;;6.00;99.90;;;;;;5076294;28;20032;-78
2023/01/10 12:52:46;;;;;;;24.33;12.00;;;6.00;99.90;;;;;;5076061;28;20067;-78
2023/01/10 12:55:24;;;;;;;17.45;9.30;;;6.00;99.90;;;;;;5076444;28;20080;-79
2023/01/10 12:57:55;;;;;;;17.00;10.10;;;5.90;99.90;;;;;;5074968;28;20074;-79
2023/01/10 13:00:30;;;;;;;21.98;12.15;;;5.90;99.90;;;;;;5075908;28;20023;-79
2023/01/10 13:02:59;;;;;;;19.98;10.57;;;6.00;99.90;;;;;;5074720;28;20031;-79
2023/01/10 13:05:27;;;;;;;20.45;12.45;;;5.90;99.90;;;;;;5074437;28;20024;-79
2023/01/10 13:08:09;;;;;;;29.73;18.85;;;6.00;99.90;;;;;;5075902;28;20497;-79
2023/01/10 13:10:40;;;;;;;30.65;21.38;;;5.90;99.90;;;;;;5074554;28;20082;-79
2023/01/10 13:13:34;;;;;;;27.75;16.38;;;5.90;99.90;;;;;;5075777;28;20024;-79